sensor_id;sensor_type;location;lat;lon;timestamp;pressure;altitude;pressure_sealevel;temperature;humidity
53270;BME280;39159;45.634;9.420;2022-08-19T00:02:04;98297.75;;;17.70;100.00
53270;BME280;39159;45.634;9.420;2022-08-19T00:04:31;98294.59;;;17.72;100.00
53270;BME280;39159;45.634;9.420;2022-08-19T00:06:58;98291.03;;;17.68;100.00
53270;BME280;39159;45.634;9.420;2022-08-19T00:09:24;98283.53;;;17.68;100.00
53270;BME280;39159;45.634;9.420;2022-08-19T00:11:49;98287.84;;;17.66;100.00
53270;BME280;39159;45.634;9.420;2022-08-19T00:14:16;98291.38;;;17.66;100.00
53270;BME280;39159;45.634;9.420;2022-08-19T00:16:42;98285.09;;;17.69;100.00
53270;BME280;39159;45.634;9.420;2022-08-19T00:19:08;98279.22;;;17.71;100.00
53270;BME280;39159;45.634;9.420;2022-08-19T00:21:33;98280.50;;;17.77;100.00
53270;BME280;39159;45.634;9.420;2022-08-19T00:24:05;98278.25;;;17.83;100.00
53270;BME280;39159;45.634;9.420;2022-08-19T00:26:30;98273.19;;;17.88;100.00
53270;BME280;39159;45.634;9.420;2022-08-19T00:28:56;98274.06;;;17.92;100.00
53270;BME280;39159;45.634;9.420;2022-08-19T00:31:21;98258.28;;;17.93;100.00
53270;BME280;39159;45.634;9.420;2022-08-19T00:33:46;98257.53;;;17.96;100.00
53270;BME280;39159;45.634;9.420;2022-08-19T00:36:14;98251.63;;;17.97;100.00
53270;BME280;39159;45.634;9.420;2022-08-19T00:38:40;98256.78;;;17.99;100.00
53270;BME280;39159;45.634;9.420;2022-08-19T00:41:08;98255.66;;;18.04;100.00
53270;BME280;39159;45.634;9.420;2022-08-19T00:43:34;98248.59;;;18.06;100.00
53270;BME280;39159;45.634;9.420;2022-08-19T00:45:59;98262.03;;;18.08;100.00
53270;BME280;39159;45.634;9.420;2022-08-19T00:48:27;98268.75;;;18.10;100.00
53270;BME280;39159;45.634;9.420;2022-08-19T00:50:53;98272.75;;;18.13;100.00
53270;BME280;39159;45.634;9.420;2022-08-19T00:53:21;98277.13;;;18.17;100.00
53270;BME280;39159;45.634;9.420;2022-08-19T00:55:48;98254.34;;;18.24;100.00
53270;BME280;39159;45.634;9.420;2022-08-19T00:58:15;98248.88;;;18.28;100.00
53270;BME280;39159;45.634;9.420;2022-08-19T01:00:42;98242.16;;;18.29;100.00
53270;BME280;39159;45.634;9.420;2022-08-19T01:03:10;98259.09;;;18.27;100.00
53270;BME280;39159;45.634;9.420;2022-08-19T01:05:35;98269.72;;;18.25;100.00
53270;BME280;39159;45.634;9.420;2022-08-19T01:08:02;98257.47;;;18.22;100.00
53270;BME280;39159;45.634;9.420;2022-08-19T01:10:30;98250.28;;;18.14;100.00
53270;BME280;39159;45.634;9.420;2022-08-19T01:12:57;98240.31;;;18.06;100.00
53270;BME280;39159;45.634;9.420;2022-08-19T01:15:24;98230.81;;;18.04;100.00
53270;BME280;39159;45.634;9.420;2022-08-19T01:17:50;98226.44;;;18.02;100.00
53270;BME280;39159;45.634;9.420;2022-08-19T01:20:18;98224.88;;;18.01;100.00
53270;BME280;39159;45.634;9.420;2022-08-19T01:25:13;98220.13;;;18.02;100.00
53270;BME280;39159;45.634;9.420;2022-08-19T01:27:39;98228.84;;;18.04;100.00
53270;BME280;39159;45.634;9.420;2022-08-19T01:30:05;98229.63;;;18.05;100.00
53270;BME280;39159;45.634;9.420;2022-08-19T01:32:31;98235.16;;;18.05;100.00
53270;BME280;39159;45.634;9.420;2022-08-19T01:34:56;98240.66;;;18.01;100.00
53270;BME280;39159;45.634;9.420;2022-08-19T01:37:22;98241.06;;;18.03;100.00
53270;BME280;39159;45.634;9.420;2022-08-19T01:39:48;98247.38;;;18.04;100.00
53270;BME280;39159;45.634;9.420;2022-08-19T01:42:14;98235.13;;;18.01;100.00
53270;BME280;39159;45.634;9.420;2022-08-19T01:44:39;98235.06;;;17.97;100.00
53270;BME280;39159;45.634;9.420;2022-08-19T01:47:06;98232.66;;;17.96;100.00
53270;BME280;39159;45.634;9.420;2022-08-19T01:49:32;98235.84;;;17.98;100.00
53270;BME280;39159;45.634;9.420;2022-08-19T01:51:58;98238.69;;;18.01;100.00
53270;BME280;39159;45.634;9.420;2022-08-19T01:54:24;98244.63;;;18.04;100.00
53270;BME280;39159;45.634;9.420;2022-08-19T01:56:50;98236.38;;;18.07;100.00
53270;BME280;39159;45.634;9.420;2022-08-19T01:59:18;98250.66;;;18.13;100.00
53270;BME280;39159;45.634;9.420;2022-08-19T02:01:44;98255.41;;;18.16;100.00
53270;BME280;39159;45.634;9.420;2022-08-19T02:04:09;98246.81;;;18.21;100.00
53270;BME280;39159;45.634;9.420;2022-08-19T02:06:34;98252.75;;;18.23;100.00
53270;BME280;39159;45.634;9.420;2022-08-19T02:09:01;98255.13;;;18.25;100.00
53270;BME280;39159;45.634;9.420;2022-08-19T02:11:28;98252.00;;;18.26;100.00
53270;BME280;39159;45.634;9.420;2022-08-19T02:13:56;98240.53;;;18.24;100.00
53270;BME280;39159;45.634;9.420;2022-08-19T02:16:22;98242.94;;;18.29;100.00
53270;BME280;39159;45.634;9.420;2022-08-19T02:18:47;98242.56;;;18.31;100.00
53270;BME280;39159;45.634;9.420;2022-08-19T02:21:18;98237.09;;;18.34;100.00
53270;BME280;39159;45.634;9.420;2022-08-19T02:23:45;98234.75;;;18.36;100.00
53270;BME280;39159;45.634;9.420;2022-08-19T02:26:10;98233.56;;;18.37;100.00
53270;BME280;39159;45.634;9.420;2022-08-19T02:28:35;98223.72;;;18.36;100.00
53270;BME280;39159;45.634;9.420;2022-08-19T02:31:01;98227.63;;;18.35;100.00
53270;BME280;39159;45.634;9.420;2022-08-19T02:33:27;98224.88;;;18.35;100.00
53270;BME280;39159;45.634;9.420;2022-08-19T02:35:52;98216.59;;;18.35;100.00
53270;BME280;39159;45.634;9.420;2022-08-19T02:38:18;98212.66;;;18.36;100.00
53270;BME280;39159;45.634;9.420;2022-08-19T02:40:53;98213.44;;;18.37;100.00
53270;BME280;39159;45.634;9.420;2022-08-19T02:43:19;98212.69;;;18.40;100.00
53270;BME280;39159;45.634;9.420;2022-08-19T02:45:48;98215.09;;;18.41;100.00
53270;BME280;39159;45.634;9.420;2022-08-19T02:48:15;98200.47;;;18.41;100.00
53270;BME280;39159;45.634;9.420;2022-08-19T02:50:42;98196.09;;;18.40;100.00
53270;BME280;39159;45.634;9.420;2022-08-19T02:53:08;98189.00;;;18.39;100.00
53270;BME280;39159;45.634;9.420;2022-08-19T02:55:33;98189.00;;;18.39;100.00
53270;BME280;39159;45.634;9.420;2022-08-19T02:57:59;98195.31;;;18.39;100.00
53270;BME280;39159;45.634;9.420;2022-08-19T03:00:25;98193.31;;;18.36;100.00
53270;BME280;39159;45.634;9.420;2022-08-19T03:02:51;98192.06;;;18.30;100.00
53270;BME280;39159;45.634;9.420;2022-08-19T03:05:16;98187.34;;;18.31;100.00
53270;BME280;39159;45.634;9.420;2022-08-19T03:07:41;98195.19;;;18.29;100.00
53270;BME280;39159;45.634;9.420;2022-08-19T03:10:07;98195.63;;;18.31;100.00
53270;BME280;39159;45.634;9.420;2022-08-19T03:12:35;98203.13;;;18.30;100.00
53270;BME280;39159;45.634;9.420;2022-08-19T03:15:00;98212.25;;;18.34;100.00
53270;BME280;39159;45.634;9.420;2022-08-19T03:17:26;98198.09;;;18.39;100.00
53270;BME280;39159;45.634;9.420;2022-08-19T03:19:51;98203.63;;;18.43;100.00
53270;BME280;39159;45.634;9.420;2022-08-19T03:22:16;98214.69;;;18.43;100.00
53270;BME280;39159;45.634;9.420;2022-08-19T03:24:41;98212.72;;;18.43;100.00
53270;BME280;39159;45.634;9.420;2022-08-19T03:27:08;98214.31;;;18.44;100.00
53270;BME280;39159;45.634;9.420;2022-08-19T03:29:34;98217.06;;;18.44;100.00
53270;BME280;39159;45.634;9.420;2022-08-19T03:32:03;98217.84;;;18.41;100.00
53270;BME280;39159;45.634;9.420;2022-08-19T03:34:29;98213.06;;;18.38;100.00
53270;BME280;39159;45.634;9.420;2022-08-19T03:36:56;98222.06;;;18.32;100.00
53270;BME280;39159;45.634;9.420;2022-08-19T03:39:23;98217.66;;;18.23;100.00
53270;BME280;39159;45.634;9.420;2022-08-19T03:41:49;98225.88;;;18.20;100.00
53270;BME280;39159;45.634;9.420;2022-08-19T03:44:18;98222.66;;;18.14;100.00
53270;BME280;39159;45.634;9.420;2022-08-19T03:46:49;98228.13;;;18.11;100.00
53270;BME280;39159;45.634;9.420;2022-08-19T03:49:15;98228.94;;;18.11;100.00
53270;BME280;39159;45.634;9.420;2022-08-19T03:51:41;98227.78;;;18.12;100.00
53270;BME280;39159;45.634;9.420;2022-08-19T03:54:12;98235.63;;;18.10;100.00
53270;BME280;39159;45.634;9.420;2022-08-19T03:56:38;98251.41;;;18.10;100.00
53270;BME280;39159;45.634;9.420;2022-08-19T03:59:05;98258.94;;;18.13;100.00
53270;BME280;39159;45.634;9.420;2022-08-19T04:01:30;98259.72;;;18.13;100.00
53270;BME280;39159;45.634;9.420;2022-08-19T04:03:56;98256.59;;;18.15;100.00
53270;BME280;39159;45.634;9.420;2022-08-19T04:06:24;98251.50;;;18.17;100.00
53270;BME280;39159;45.634;9.420;2022-08-19T04:08:50;98262.19;;;18.22;100.00
53270;BME280;39159;45.634;9.420;2022-08-19T04:11:17;98266.22;;;18.28;100.00
53270;BME280;39159;45.634;9.420;2022-08-19T04:13:43;98282.47;;;18.33;100.00
53270;BME280;39159;45.634;9.420;2022-08-19T04:16:09;98301.06;;;18.36;100.00
53270;BME280;39159;45.634;9.420;2022-08-19T04:18:35;98308.09;;;18.34;100.00
53270;BME280;39159;45.634;9.420;2022-08-19T04:21:01;98302.06;;;18.25;100.00
53270;BME280;39159;45.634;9.420;2022-08-19T04:23:26;98305.19;;;18.19;100.00
53270;BME280;39159;45.634;9.420;2022-08-19T04:25:53;98314.69;;;18.22;100.00
53270;BME280;39159;45.634;9.420;2022-08-19T04:28:18;98302.47;;;18.23;100.00
53270;BME280;39159;45.634;9.420;2022-08-19T04:30:46;98311.16;;;18.25;100.00
53270;BME280;39159;45.634;9.420;2022-08-19T04:33:13;98314.69;;;18.22;100.00
53270;BME280;39159;45.634;9.420;2022-08-19T04:35:42;98320.25;;;18.26;100.00
53270;BME280;39159;45.634;9.420;2022-08-19T04:38:08;98318.72;;;18.28;100.00
53270;BME280;39159;45.634;9.420;2022-08-19T04:40:34;98323.03;;;18.29;100.00
53270;BME280;39159;45.634;9.420;2022-08-19T04:43:22;98324.97;;;18.25;100.00
53270;BME280;39159;45.634;9.420;2022-08-19T04:45:48;98330.91;;;18.27;100.00
53270;BME280;39159;45.634;9.420;2022-08-19T04:48:13;98337.94;;;18.21;100.00
53270;BME280;39159;45.634;9.420;2022-08-19T04:50:42;98341.78;;;18.13;100.00
53270;BME280;39159;45.634;9.420;2022-08-19T04:53:07;98348.88;;;18.14;100.00
53270;BME280;39159;45.634;9.420;2022-08-19T04:55:33;98346.53;;;18.16;100.00
53270;BME280;39159;45.634;9.420;2022-08-19T04:58:00;98341.00;;;18.16;100.00
53270;BME280;39159;45.634;9.420;2022-08-19T05:00:27;98348.84;;;18.10;100.00
53270;BME280;39159;45.634;9.420;2022-08-19T05:02:52;98349.53;;;18.04;100.00
53270;BME280;39159;45.634;9.420;2022-08-19T05:05:17;98364.56;;;18.06;100.00
53270;BME280;39159;45.634;9.420;2022-08-19T05:07:43;98375.13;;;18.00;100.00
53270;BME280;39159;45.634;9.420;2022-08-19T05:10:08;98389.34;;;18.02;100.00
53270;BME280;39159;45.634;9.420;2022-08-19T05:12:33;98392.09;;;18.02;100.00
53270;BME280;39159;45.634;9.420;2022-08-19T05:14:59;98391.31;;;18.02;100.00
53270;BME280;39159;45.634;9.420;2022-08-19T05:17:25;98385.44;;;18.04;100.00
53270;BME280;39159;45.634;9.420;2022-08-19T05:19:50;98386.59;;;18.02;100.00
53270;BME280;39159;45.634;9.420;2022-08-19T05:22:34;98392.97;;;18.07;100.00
53270;BME280;39159;45.634;9.420;2022-08-19T05:25:04;98389.41;;;18.06;100.00
53270;BME280;39159;45.634;9.420;2022-08-19T05:27:30;98387.00;;;18.05;100.00
53270;BME280;39159;45.634;9.420;2022-08-19T05:29:56;98393.72;;;18.04;100.00
53270;BME280;39159;45.634;9.420;2022-08-19T05:32:21;98396.91;;;18.06;100.00
53270;BME280;39159;45.634;9.420;2022-08-19T05:34:48;98400.38;;;18.02;100.00
53270;BME280;39159;45.634;9.420;2022-08-19T05:37:13;98392.97;;;18.07;100.00
53270;BME280;39159;45.634;9.420;2022-08-19T05:39:39;98406.34;;;18.05;100.00
53270;BME280;39159;45.634;9.420;2022-08-19T05:42:06;98406.31;;;18.01;100.00
53270;BME280;39159;45.634;9.420;2022-08-19T05:44:33;98413.84;;;18.04;100.00
53270;BME280;39159;45.634;9.420;2022-08-19T05:46:59;98410.72;;;18.06;100.00
53270;BME280;39159;45.634;9.420;2022-08-19T05:49:25;98419.34;;;18.04;100.00
53270;BME280;39159;45.634;9.420;2022-08-19T05:51:52;98414.25;;;18.06;100.00
53270;BME280;39159;45.634;9.420;2022-08-19T05:54:18;98422.19;;;18.08;100.00
53270;BME280;39159;45.634;9.420;2022-08-19T05:56:44;98428.13;;;18.10;100.00
53270;BME280;39159;45.634;9.420;2022-08-19T05:59:12;98430.81;;;18.06;100.00
53270;BME280;39159;45.634;9.420;2022-08-19T06:01:38;98428.44;;;18.05;100.00
53270;BME280;39159;45.634;9.420;2022-08-19T06:04:04;98429.59;;;18.04;100.00
53270;BME280;39159;45.634;9.420;2022-08-19T06:06:29;98429.28;;;18.09;100.00
53270;BME280;39159;45.634;9.420;2022-08-19T06:08:55;98425.78;;;18.12;100.00
53270;BME280;39159;45.634;9.420;2022-08-19T06:13:57;98427.03;;;18.14;100.00
53270;BME280;39159;45.634;9.420;2022-08-19T06:16:25;98434.97;;;18.19;100.00
53270;BME280;39159;45.634;9.420;2022-08-19T06:18:54;98419.63;;;18.22;100.00
53270;BME280;39159;45.634;9.420;2022-08-19T06:21:20;98407.88;;;18.29;100.00
53270;BME280;39159;45.634;9.420;2022-08-19T06:23:46;98397.31;;;18.34;100.00
53270;BME280;39159;45.634;9.420;2022-08-19T06:26:12;98386.69;;;18.36;100.00
53270;BME280;39159;45.634;9.420;2022-08-19T06:28:38;98383.63;;;18.45;100.00
53270;BME280;39159;45.634;9.420;2022-08-19T06:31:07;98378.09;;;18.45;100.00
53270;BME280;39159;45.634;9.420;2022-08-19T06:33:33;98374.63;;;18.52;100.00
53270;BME280;39159;45.634;9.420;2022-08-19T06:35:58;98371.16;;;18.58;100.00
53270;BME280;39159;45.634;9.420;2022-08-19T06:38:24;98368.22;;;18.74;100.00
53270;BME280;39159;45.634;9.420;2022-08-19T06:40:49;98379.81;;;18.83;100.00
53270;BME280;39159;45.634;9.420;2022-08-19T06:43:15;98374.72;;;18.86;100.00
53270;BME280;39159;45.634;9.420;2022-08-19T06:45:40;98375.63;;;18.97;100.00
53270;BME280;39159;45.634;9.420;2022-08-19T06:48:06;98379.56;;;18.96;100.00
53270;BME280;39159;45.634;9.420;2022-08-19T06:50:32;98389.69;;;18.84;100.00
53270;BME280;39159;45.634;9.420;2022-08-19T06:52:57;98387.28;;;18.79;100.00
53270;BME280;39159;45.634;9.420;2022-08-19T06:55:22;98394.44;;;18.84;100.00
53270;BME280;39159;45.634;9.420;2022-08-19T06:57:48;98404.53;;;18.73;100.00
53270;BME280;39159;45.634;9.420;2022-08-19T07:00:15;98399.38;;;18.71;100.00
53270;BME280;39159;45.634;9.420;2022-08-19T07:02:41;98402.13;;;18.71;100.00
53270;BME280;39159;45.634;9.420;2022-08-19T07:05:06;98408.44;;;18.68;100.00
53270;BME280;39159;45.634;9.420;2022-08-19T07:07:32;98411.19;;;18.68;100.00
53270;BME280;39159;45.634;9.420;2022-08-19T07:09:57;98407.94;;;18.62;100.00
53270;BME280;39159;45.634;9.420;2022-08-19T07:12:22;98410.34;;;18.64;100.00
53270;BME280;39159;45.634;9.420;2022-08-19T07:14:48;98412.69;;;18.62;100.00
53270;BME280;39159;45.634;9.420;2022-08-19T07:17:14;98408.72;;;18.63;100.00
53270;BME280;39159;45.634;9.420;2022-08-19T07:19:40;98392.22;;;18.67;100.00
53270;BME280;39159;45.634;9.420;2022-08-19T07:22:07;98389.94;;;18.72;100.00
53270;BME280;39159;45.634;9.420;2022-08-19T07:24:32;98383.72;;;18.79;100.00
53270;BME280;39159;45.634;9.420;2022-08-19T07:26:59;98380.97;;;18.82;100.00
53270;BME280;39159;45.634;9.420;2022-08-19T07:29:28;98376.28;;;18.87;100.00
53270;BME280;39159;45.634;9.420;2022-08-19T07:31:54;98381.91;;;18.94;100.00
53270;BME280;39159;45.634;9.420;2022-08-19T07:34:21;98400.97;;;19.02;100.00
53270;BME280;39159;45.634;9.420;2022-08-19T07:36:47;98418.41;;;19.07;100.00
53270;BME280;39159;45.634;9.420;2022-08-19T07:39:14;98425.91;;;19.06;100.00
53270;BME280;39159;45.634;9.420;2022-08-19T07:41:40;98430.66;;;19.09;100.00
53270;BME280;39159;45.634;9.420;2022-08-19T07:44:06;98437.03;;;19.13;100.00
53270;BME280;39159;45.634;9.420;2022-08-19T07:46:36;98435.47;;;19.16;100.00
53270;BME280;39159;45.634;9.420;2022-08-19T07:49:03;98437.50;;;19.19;100.00
53270;BME280;39159;45.634;9.420;2022-08-19T07:51:28;98438.31;;;19.23;100.00
53270;BME280;39159;45.634;9.420;2022-08-19T07:53:54;98437.22;;;19.28;100.00
53270;BME280;39159;45.634;9.420;2022-08-19T07:56:19;98442.81;;;19.35;100.00
53270;BME280;39159;45.634;9.420;2022-08-19T07:58:46;98454.75;;;19.42;100.00
53270;BME280;39159;45.634;9.420;2022-08-19T08:01:13;98465.50;;;19.48;100.00
53270;BME280;39159;45.634;9.420;2022-08-19T08:03:39;98464.78;;;19.54;100.00
53270;BME280;39159;45.634;9.420;2022-08-19T08:06:27;98470.38;;;19.61;100.00
53270;BME280;39159;45.634;9.420;2022-08-19T08:09:12;98470.88;;;19.71;100.00
53270;BME280;39159;45.634;9.420;2022-08-19T08:11:41;98474.50;;;19.78;100.00
53270;BME280;39159;45.634;9.420;2022-08-19T08:14:07;98478.97;;;19.90;100.00
53270;BME280;39159;45.634;9.420;2022-08-19T08:16:36;98479.88;;;20.05;100.00
53270;BME280;39159;45.634;9.420;2022-08-19T08:19:05;98484.78;;;20.19;100.00
53270;BME280;39159;45.634;9.420;2022-08-19T08:21:32;98484.09;;;20.33;100.00
53270;BME280;39159;45.634;9.420;2022-08-19T08:23:57;98478.28;;;20.52;100.00
53270;BME280;39159;45.634;9.420;2022-08-19T08:26:22;98474.38;;;20.57;100.00
53270;BME280;39159;45.634;9.420;2022-08-19T08:28:48;98473.59;;;20.60;100.00
53270;BME280;39159;45.634;9.420;2022-08-19T08:31:13;98473.19;;;20.58;100.00
53270;BME280;39159;45.634;9.420;2022-08-19T08:33:39;98471.22;;;20.62;100.00
53270;BME280;39159;45.634;9.420;2022-08-19T08:36:07;98469.31;;;20.73;100.00
53270;BME280;39159;45.634;9.420;2022-08-19T08:38:32;98470.81;;;20.60;100.00
53270;BME280;39159;45.634;9.420;2022-08-19T08:41:05;98476.69;;;20.51;99.04
53270;BME280;39159;45.634;9.420;2022-08-19T08:43:35;98479.78;;;20.39;100.00
53270;BME280;39159;45.634;9.420;2022-08-19T08:48:39;98472.88;;;20.15;100.00
53270;BME280;39159;45.634;9.420;2022-08-19T08:51:09;98483.06;;;20.07;100.00
53270;BME280;39159;45.634;9.420;2022-08-19T08:53:36;98493.38;;;20.06;100.00
53270;BME280;39159;45.634;9.420;2022-08-19T08:56:03;98504.06;;;20.08;100.00
53270;BME280;39159;45.634;9.420;2022-08-19T08:58:50;98504.38;;;19.99;100.00
53270;BME280;39159;45.634;9.420;2022-08-19T09:01:16;98509.56;;;20.04;100.00
53270;BME280;39159;45.634;9.420;2022-08-19T09:03:42;98508.78;;;20.04;100.00
53270;BME280;39159;45.634;9.420;2022-08-19T09:06:18;98511.09;;;19.98;100.00
53270;BME280;39159;45.634;9.420;2022-08-19T09:11:14;98511.59;;;20.11;100.00
53270;BME280;39159;45.634;9.420;2022-08-19T09:13:43;98506.56;;;20.24;100.00
53270;BME280;39159;45.634;9.420;2022-08-19T09:16:16;98506.63;;;20.31;97.94
53270;BME280;39159;45.634;9.420;2022-08-19T09:19:01;98499.94;;;20.36;95.06
53270;BME280;39159;45.634;9.420;2022-08-19T09:21:27;98504.66;;;20.32;91.57
53270;BME280;39159;45.634;9.420;2022-08-19T09:23:52;98506.25;;;20.33;91.57
53270;BME280;39159;45.634;9.420;2022-08-19T09:26:19;98501.53;;;20.40;91.15
53270;BME280;39159;45.634;9.420;2022-08-19T09:28:45;98496.47;;;20.49;89.69
53270;BME280;39159;45.634;9.420;2022-08-19T09:31:15;98488.69;;;20.66;90.69
53270;BME280;39159;45.634;9.420;2022-08-19T09:33:41;98494.31;;;20.77;89.34
53270;BME280;39159;45.634;9.420;2022-08-19T09:36:10;98496.78;;;21.00;87.92
53270;BME280;39159;45.634;9.420;2022-08-19T09:38:36;98491.75;;;21.27;87.99
53270;BME280;39159;45.634;9.420;2022-08-19T09:41:02;98489.91;;;21.52;85.42
53270;BME280;39159;45.634;9.420;2022-08-19T09:43:28;98492.28;;;21.72;85.20
53270;BME280;39159;45.634;9.420;2022-08-19T09:45:53;98485.97;;;21.89;84.40
53270;BME280;39159;45.634;9.420;2022-08-19T09:48:18;98488.38;;;21.98;84.47
53270;BME280;39159;45.634;9.420;2022-08-19T09:50:46;98496.69;;;22.05;83.84
53270;BME280;39159;45.634;9.420;2022-08-19T09:53:11;98490.00;;;22.10;85.80
53270;BME280;39159;45.634;9.420;2022-08-19T09:55:41;98484.81;;;22.19;86.93
53270;BME280;39159;45.634;9.420;2022-08-19T09:58:06;98487.19;;;22.21;85.27
53270;BME280;39159;45.634;9.420;2022-08-19T10:00:32;98481.69;;;22.28;84.60
53270;BME280;39159;45.634;9.420;2022-08-19T10:02:57;98487.19;;;22.39;83.90
53270;BME280;39159;45.634;9.420;2022-08-19T10:05:22;98483.25;;;22.50;83.45
53270;BME280;39159;45.634;9.420;2022-08-19T10:08:06;98485.59;;;22.66;79.89
53270;BME280;39159;45.634;9.420;2022-08-19T10:10:34;98480.41;;;22.65;81.83
53270;BME280;39159;45.634;9.420;2022-08-19T10:12:59;98479.59;;;22.75;84.53
53270;BME280;39159;45.634;9.420;2022-08-19T10:15:25;98466.44;;;23.01;84.74
53270;BME280;39159;45.634;9.420;2022-08-19T10:17:50;98468.03;;;23.02;81.00
53270;BME280;39159;45.634;9.420;2022-08-19T10:20:15;98460.69;;;23.36;83.23
53270;BME280;39159;45.634;9.420;2022-08-19T10:22:41;98464.59;;;23.53;82.24
53270;BME280;39159;45.634;9.420;2022-08-19T10:25:07;98465.38;;;23.54;80.14
53270;BME280;39159;45.634;9.420;2022-08-19T10:27:32;98460.25;;;23.52;78.58
53270;BME280;39159;45.634;9.420;2022-08-19T10:29:58;98465.09;;;23.34;79.05
53270;BME280;39159;45.634;9.420;2022-08-19T10:32:23;98457.50;;;23.42;78.70
53270;BME280;39159;45.634;9.420;2022-08-19T10:34:50;98458.31;;;23.38;79.56
53270;BME280;39159;45.634;9.420;2022-08-19T10:37:17;98452.59;;;23.64;77.92
53270;BME280;39159;45.634;9.420;2022-08-19T10:39:45;98442.53;;;23.81;78.78
53270;BME280;39159;45.634;9.420;2022-08-19T10:42:11;98447.09;;;24.12;76.24
53270;BME280;39159;45.634;9.420;2022-08-19T10:44:38;98440.31;;;24.13;77.19
53270;BME280;39159;45.634;9.420;2022-08-19T10:47:03;98434.38;;;24.08;78.21
53270;BME280;39159;45.634;9.420;2022-08-19T10:49:28;98441.31;;;24.34;77.00
53270;BME280;39159;45.634;9.420;2022-08-19T10:51:54;98435.97;;;24.54;75.64
53270;BME280;39159;45.634;9.420;2022-08-19T10:54:38;98440.75;;;24.53;70.23
53270;BME280;39159;45.634;9.420;2022-08-19T10:57:22;98437.75;;;24.75;69.43
53270;BME280;39159;45.634;9.420;2022-08-19T10:59:54;98433.63;;;24.83;72.05
53270;BME280;39159;45.634;9.420;2022-08-19T11:02:19;98425.91;;;24.98;71.11
53270;BME280;39159;45.634;9.420;2022-08-19T11:04:44;98430.59;;;25.05;70.50
53270;BME280;39159;45.634;9.420;2022-08-19T11:07:09;98433.72;;;25.10;71.13
53270;BME280;39159;45.634;9.420;2022-08-19T11:09:38;98428.94;;;25.11;67.63
53270;BME280;39159;45.634;9.420;2022-08-19T11:12:04;98431.81;;;24.69;70.10
53270;BME280;39159;45.634;9.420;2022-08-19T11:14:29;98438.59;;;24.68;70.63
53270;BME280;39159;45.634;9.420;2022-08-19T11:16:57;98437.34;;;24.73;71.46
53270;BME280;39159;45.634;9.420;2022-08-19T11:19:23;98431.69;;;24.80;69.56
53270;BME280;39159;45.634;9.420;2022-08-19T11:21:49;98437.19;;;24.87;68.17
53270;BME280;39159;45.634;9.420;2022-08-19T11:24:18;98439.69;;;24.78;68.40
53270;BME280;39159;45.634;9.420;2022-08-19T11:26:45;98432.66;;;24.66;70.48
53270;BME280;39159;45.634;9.420;2022-08-19T11:29:14;98427.53;;;24.95;70.20
53270;BME280;39159;45.634;9.420;2022-08-19T11:31:40;98426.94;;;25.42;68.46
53270;BME280;39159;45.634;9.420;2022-08-19T11:34:07;98431.84;;;25.61;65.97
53270;BME280;39159;45.634;9.420;2022-08-19T11:36:33;98431.00;;;25.37;66.18
53270;BME280;39159;45.634;9.420;2022-08-19T11:38:59;98430.41;;;25.50;66.67
53270;BME280;39159;45.634;9.420;2022-08-19T11:41:25;98435.44;;;25.35;65.70
53270;BME280;39159;45.634;9.420;2022-08-19T11:43:51;98424.88;;;25.15;67.21
53270;BME280;39159;45.634;9.420;2022-08-19T11:46:18;98421.69;;;25.17;70.01
53270;BME280;39159;45.634;9.420;2022-08-19T11:48:43;98419.50;;;25.32;67.75
53270;BME280;39159;45.634;9.420;2022-08-19T11:51:15;98418.50;;;25.46;65.74
53270;BME280;39159;45.634;9.420;2022-08-19T11:53:41;98413.66;;;25.77;65.41
53270;BME280;39159;45.634;9.420;2022-08-19T11:56:07;98405.16;;;26.08;64.08
53270;BME280;39159;45.634;9.420;2022-08-19T11:58:33;98398.41;;;26.29;62.18
53270;BME280;39159;45.634;9.420;2022-08-19T12:00:59;98389.47;;;26.37;63.32
53270;BME280;39159;45.634;9.420;2022-08-19T12:03:24;98396.50;;;26.45;62.92
53270;BME280;39159;45.634;9.420;2022-08-19T12:05:50;98380.31;;;26.57;62.23
53270;BME280;39159;45.634;9.420;2022-08-19T12:08:16;98382.25;;;26.80;62.88
53270;BME280;39159;45.634;9.420;2022-08-19T12:10:42;98389.38;;;26.84;60.20
53270;BME280;39159;45.634;9.420;2022-08-19T12:13:11;98389.72;;;26.86;59.81
53270;BME280;39159;45.634;9.420;2022-08-19T12:15:40;98389.00;;;26.62;61.13
53270;BME280;39159;45.634;9.420;2022-08-19T12:18:06;98379.50;;;26.96;61.13
53270;BME280;39159;45.634;9.420;2022-08-19T12:20:33;98379.41;;;27.20;62.16
53270;BME280;39159;45.634;9.420;2022-08-19T12:22:59;98391.94;;;26.95;59.42
53270;BME280;39159;45.634;9.420;2022-08-19T12:25:25;98378.75;;;27.12;58.29
53270;BME280;39159;45.634;9.420;2022-08-19T12:27:50;98378.88;;;27.08;60.11
53270;BME280;39159;45.634;9.420;2022-08-19T12:30:17;98377.63;;;27.09;60.25
53270;BME280;39159;45.634;9.420;2022-08-19T12:32:43;98369.09;;;26.97;60.55
53270;BME280;39159;45.634;9.420;2022-08-19T12:35:09;98374.75;;;27.13;60.47
53270;BME280;39159;45.634;9.420;2022-08-19T12:37:35;98365.28;;;27.27;58.56
53270;BME280;39159;45.634;9.420;2022-08-19T12:40:01;98350.84;;;27.08;58.94
53270;BME280;39159;45.634;9.420;2022-08-19T12:42:27;98345.22;;;27.28;59.44
53270;BME280;39159;45.634;9.420;2022-08-19T12:44:52;98331.50;;;27.51;58.58
53270;BME280;39159;45.634;9.420;2022-08-19T12:47:18;98333.84;;;27.36;57.81
53270;BME280;39159;45.634;9.420;2022-08-19T12:49:43;98337.88;;;27.35;58.45
53270;BME280;39159;45.634;9.420;2022-08-19T12:52:09;98338.25;;;27.17;57.03
53270;BME280;39159;45.634;9.420;2022-08-19T12:54:35;98332.56;;;27.04;57.17
53270;BME280;39159;45.634;9.420;2022-08-19T12:57:04;98336.38;;;26.94;58.00
53270;BME280;39159;45.634;9.420;2022-08-19T12:59:30;98336.56;;;26.66;59.68
53270;BME280;39159;45.634;9.420;2022-08-19T13:01:55;98335.88;;;26.79;60.49